Time;durP1;ratioP1;P1;durP2;ratioP2;P2;SDS_P1;SDS_P2;PMS_P1;PMS_P2;Temp;Humidity;BMP_temperature;BMP_pressure;BME280_temperature;BME280_humidity;BME280_pressure;Samples;Min_cycle;Max_cycle;Signal;HPM_P1;HPM_P2
2023/08/03 00:01:09;;;;;;;;;0.40;0.00;;;;;16.84;81.95;97525.16;4976668;28;9523;-60
2023/08/03 00:03:37;;;;;;;;;1.00;0.00;;;;;16.87;82.17;97519.31;4976866;28;8848;-61
2023/08/03 00:06:05;;;;;;;;;0.00;0.00;;;;;16.91;82.36;97511.63;4976893;28;8823;-60
2023/08/03 00:08:33;;;;;;;;;0.00;0.00;;;;;16.92;81.95;97511.41;4975710;28;8816;-61
2023/08/03 00:11:00;;;;;;;;;0.80;0.00;;;;;16.96;81.51;97514.50;4976697;28;8844;-61
2023/08/03 00:13:30;;;;;;;;;0.00;0.00;;;;;16.98;81.82;97509.72;4976891;28;8821;-60
2023/08/03 00:15:58;;;;;;;;;1.00;0.20;;;;;17.02;81.29;97505.53;4976360;28;8836;-61
2023/08/03 00:18:26;;;;;;;;;0.00;0.00;;;;;17.02;81.53;97498.28;4976656;28;8832;-66
2023/08/03 00:20:53;;;;;;;;;0.00;0.00;;;;;17.04;81.72;97503.44;4979628;28;8836;-59
2023/08/03 00:23:21;;;;;;;;;0.00;0.00;;;;;17.07;81.30;97492.22;4981050;28;8836;-60
2023/08/03 00:25:49;;;;;;;;;0.00;0.00;;;;;17.08;81.42;97502.78;4980582;28;8828;-62
2023/08/03 00:28:18;;;;;;;;;0.40;0.40;;;;;17.04;81.17;97496.22;4980994;28;8843;-60
2023/08/03 00:30:45;;;;;;;;;0.00;0.00;;;;;16.98;82.04;97507.84;4980676;28;8841;-66
2023/08/03 00:33:13;;;;;;;;;0.00;0.00;;;;;16.90;81.48;97508.13;4980452;28;8840;-59
2023/08/03 00:35:41;;;;;;;;;0.00;0.00;;;;;16.78;82.01;97517.16;4980399;28;8843;-61
2023/08/03 00:38:08;;;;;;;;;1.00;1.00;;;;;16.66;82.71;97513.53;4980451;28;8867;-60
2023/08/03 00:40:36;;;;;;;;;0.00;0.00;;;;;16.55;83.02;97516.94;4980985;28;8875;-60
2023/08/03 00:43:04;;;;;;;;;0.00;0.00;;;;;16.46;83.10;97518.22;4981398;28;9522;-60
2023/08/03 00:45:32;;;;;;;;;0.00;0.00;;;;;16.41;83.64;97515.38;4981113;28;8819;-63
2023/08/03 00:48:00;;;;;;;;;0.00;0.00;;;;;16.34;83.41;97499.25;4981168;28;8979;-60
2023/08/03 00:50:27;;;;;;;;;0.00;0.00;;;;;16.30;83.69;97497.22;4980883;28;9503;-60
2023/08/03 00:52:55;;;;;;;;;0.00;0.00;;;;;16.27;83.63;97503.84;4980804;28;8832;-59
2023/08/03 00:55:23;;;;;;;;;0.00;0.00;;;;;16.25;84.03;97500.56;4980276;28;8837;-59
2023/08/03 00:57:50;;;;;;;;;0.00;0.00;;;;;16.24;84.03;97500.78;4980340;28;8821;-60
2023/08/03 01:00:18;;;;;;;;;0.00;0.00;;;;;16.22;84.33;97494.81;4980512;28;8879;-60
2023/08/03 01:02:45;;;;;;;;;0.00;0.00;;;;;16.22;83.96;97502.88;4979977;28;9498;-62
2023/08/03 01:05:13;;;;;;;;;0.00;0.00;;;;;16.22;84.03;97504.75;4980155;28;8907;-61
2023/08/03 01:07:41;;;;;;;;;0.40;0.40;;;;;16.22;84.35;97486.75;4980150;28;8828;-60
2023/08/03 01:10:09;;;;;;;;;0.00;0.00;;;;;16.23;84.03;97489.22;4979392;28;8852;-60
2023/08/03 01:12:36;;;;;;;;;0.00;0.00;;;;;16.25;84.14;97484.47;4980288;28;8824;-60
2023/08/03 01:15:04;;;;;;;;;0.00;0.00;;;;;16.26;84.20;97486.09;4980277;28;8840;-60
2023/08/03 01:17:31;;;;;;;;;0.00;0.00;;;;;16.24;84.81;97493.56;4980172;28;8849;-62
2023/08/03 01:19:59;;;;;;;;;0.20;0.20;;;;;16.22;84.44;97492.13;4979882;28;8864;-60
2023/08/03 01:22:27;;;;;;;;;0.40;0.40;;;;;16.20;84.92;97497.69;4979788;28;8887;-61
2023/08/03 01:24:55;;;;;;;;;0.80;0.60;;;;;16.16;84.74;97514.47;4980026;28;8817;-61
2023/08/03 01:27:22;;;;;;;;;0.00;0.00;;;;;16.14;84.91;97518.44;4979847;28;8832;-59
2023/08/03 01:29:50;;;;;;;;;0.00;0.00;;;;;16.10;84.89;97518.03;4979246;28;8837;-61
2023/08/03 01:32:18;;;;;;;;;0.00;0.00;;;;;16.09;85.03;97524.44;4979246;28;8828;-60
2023/08/03 01:34:45;;;;;;;;;0.00;0.00;;;;;16.08;85.03;97522.78;4979535;28;8953;-61
2023/08/03 01:37:13;;;;;;;;;0.80;0.00;;;;;16.08;85.49;97530.03;4979730;28;8847;-60
2023/08/03 01:39:41;;;;;;;;;0.00;0.00;;;;;16.07;85.35;97520.34;4979207;28;8832;-61
2023/08/03 01:42:09;;;;;;;;;0.20;0.00;;;;;16.08;85.47;97519.28;4979571;28;8837;-61
2023/08/03 01:44:36;;;;;;;;;0.00;0.00;;;;;16.07;85.79;97534.56;4979081;28;8821;-59
2023/08/03 01:47:04;;;;;;;;;0.00;0.00;;;;;16.07;85.71;97545.31;4979622;28;8825;-60
2023/08/03 01:49:31;;;;;;;;;0.00;0.00;;;;;16.06;85.52;97538.28;4979634;28;9529;-60
2023/08/03 01:51:59;;;;;;;;;0.00;0.00;;;;;16.06;85.35;97540.97;4978832;28;8825;-60
2023/08/03 01:54:27;;;;;;;;;0.00;0.00;;;;;16.07;85.79;97549.88;4979450;28;8843;-60
2023/08/03 01:56:54;;;;;;;;;0.00;0.00;;;;;16.07;85.48;97544.50;4979304;28;8837;-61
2023/08/03 01:59:22;;;;;;;;;0.00;0.00;;;;;16.07;85.42;97550.69;4979097;28;8951;-60
2023/08/03 02:01:50;;;;;;;;;0.00;0.00;;;;;16.07;85.50;97557.94;4979205;28;8835;-61
2023/08/03 02:04:17;;;;;;;;;0.00;0.00;;;;;16.06;85.49;97564.31;4979305;28;8890;-61
2023/08/03 02:06:45;;;;;;;;;0.00;0.00;;;;;16.06;85.49;97572.34;4979036;28;8911;-59
2023/08/03 02:09:13;;;;;;;;;0.00;0.00;;;;;16.04;85.75;97572.59;4978894;28;8828;-60
2023/08/03 02:11:40;;;;;;;;;0.00;0.00;;;;;16.03;85.31;97586.22;4979054;28;8825;-60
2023/08/03 02:14:08;;;;;;;;;0.00;0.00;;;;;16.03;85.84;97570.13;4979411;28;8821;-60
2023/08/03 02:16:36;;;;;;;;;0.40;0.00;;;;;16.02;85.49;97579.22;4978567;28;8851;-60
2023/08/03 02:19:03;;;;;;;;;1.80;1.80;;;;;16.01;85.69;97588.31;4978734;28;8816;-58
2023/08/03 02:21:31;;;;;;;;;1.00;1.00;;;;;16.01;86.12;97593.69;4978689;28;8836;-59
2023/08/03 02:23:59;;;;;;;;;0.20;0.20;;;;;16.00;85.91;97579.41;4978641;28;8817;-59
2023/08/03 02:26:27;;;;;;;;;0.20;0.20;;;;;16.01;85.98;97593.69;4978271;28;8824;-60
2023/08/03 02:28:54;;;;;;;;;2.20;2.20;;;;;16.01;85.51;97591.81;4978393;28;8847;-60
2023/08/03 02:31:22;;;;;;;;;0.00;0.00;;;;;16.00;85.28;97590.16;4978596;28;8869;-59
2023/08/03 02:33:50;;;;;;;;;0.00;0.00;;;;;16.01;86.00;97601.72;4978135;28;8828;-59
2023/08/03 02:36:17;;;;;;;;;1.00;1.00;;;;;16.01;86.00;97605.22;4977895;28;8858;-59
2023/08/03 02:38:45;;;;;;;;;1.00;0.40;;;;;16.03;85.77;97599.66;4978343;28;8845;-59
2023/08/03 02:41:12;;;;;;;;;1.00;1.00;;;;;16.03;86.08;97618.44;4978239;28;8829;-59
2023/08/03 02:43:40;;;;;;;;;3.00;1.00;;;;;16.02;85.41;97614.94;4977536;28;8852;-59
2023/08/03 02:46:08;;;;;;;;;0.60;0.60;;;;;16.01;85.69;97623.22;4978206;28;8858;-59
2023/08/03 02:48:35;;;;;;;;;0.60;0.60;;;;;16.01;85.98;97625.91;4978024;28;8843;-59
2023/08/03 02:51:03;;;;;;;;;0.00;0.00;;;;;16.00;85.54;97633.13;4977251;28;8836;-59
2023/08/03 02:53:31;;;;;;;;;0.60;0.60;;;;;16.00;85.68;97632.31;4978030;28;8836;-60
2023/08/03 02:55:58;;;;;;;;;1.00;1.00;;;;;15.98;86.16;97637.03;4977974;28;8831;-59
2023/08/03 02:58:26;;;;;;;;;1.00;1.00;;;;;15.97;85.63;97636.22;4978443;28;9494;-59
2023/08/03 03:00:53;;;;;;;;;0.60;0.40;;;;;15.97;85.81;97638.06;4977857;28;8863;-59
2023/08/03 03:03:21;;;;;;;;;0.20;0.20;;;;;15.97;86.11;97636.22;4977959;28;8975;-59
2023/08/03 03:05:49;;;;;;;;;0.00;0.00;;;;;15.96;86.03;97633.75;4977917;28;8835;-60
2023/08/03 03:08:16;;;;;;;;;1.00;1.00;;;;;15.95;86.22;97642.84;4977866;28;8835;-59
2023/08/03 03:10:44;;;;;;;;;1.40;1.00;;;;;15.95;85.88;97642.84;4977469;28;8836;-60
2023/08/03 03:13:12;;;;;;;;;10.00;3.00;;;;;15.94;86.21;97643.88;4977575;28;8848;-59
2023/08/03 03:15:39;;;;;;;;;3.00;3.00;;;;;15.93;85.95;97672.56;4977311;28;9534;-60
2023/08/03 03:18:07;;;;;;;;;1.40;1.40;;;;;15.93;86.43;97661.03;4977590;28;8943;-59
2023/08/03 03:20:35;;;;;;;;;3.00;1.80;;;;;15.92;86.52;97659.38;4977677;28;8837;-60
2023/08/03 03:23:02;;;;;;;;;2.60;2.60;;;;;15.92;86.09;97665.56;4977592;28;8864;-60
2023/08/03 03:25:30;;;;;;;;;1.80;1.80;;;;;15.92;86.24;97667.44;4977821;28;8859;-59
2023/08/03 03:28:04;;;;;;;;;2.20;1.40;;;;;15.93;86.35;97663.72;4977331;28;8817;-60
2023/08/03 03:30:31;;;;;;;;;4.00;3.00;;;;;15.92;86.41;97662.06;4977079;28;8903;-58
2023/08/03 03:32:59;;;;;;;;;3.00;2.60;;;;;15.92;86.69;97664.75;4977526;28;9553;-59
2023/08/03 03:35:27;;;;;;;;;1.00;1.00;;;;;15.91;86.16;97673.84;4977041;28;8844;-59
2023/08/03 03:37:54;;;;;;;;;3.20;3.20;;;;;15.93;86.24;97671.78;4977058;28;8833;-60
2023/08/03 03:40:22;;;;;;;;;1.80;1.80;;;;;15.95;86.16;97664.31;4977371;28;9510;-60
2023/08/03 03:42:50;;;;;;;;;2.20;2.20;;;;;15.99;86.20;97676.31;4977375;28;9515;-58
2023/08/03 03:45:18;;;;;;;;;2.60;2.60;;;;;16.04;86.02;97671.94;4977108;28;8825;-59
2023/08/03 03:47:45;;;;;;;;;1.00;1.00;;;;;16.11;86.17;97671.91;4977298;28;8833;-59
2023/08/03 03:50:13;;;;;;;;;0.00;0.00;;;;;16.20;85.53;97680.31;4976805;28;8839;-60
2023/08/03 03:52:41;;;;;;;;;1.40;1.40;;;;;16.29;85.46;97680.94;4976244;28;8839;-59
2023/08/03 03:55:09;;;;;;;;;1.00;1.00;;;;;16.35;85.36;97688.94;4975783;28;8847;-58
2023/08/03 03:57:36;;;;;;;;;1.00;1.00;;;;;16.42;84.88;97689.78;4975839;28;8852;-59
2023/08/03 04:00:05;;;;;;;;;2.60;2.60;;;;;16.46;84.61;97685.63;4976718;28;8848;-61
2023/08/03 04:02:32;;;;;;;;;0.60;0.60;;;;;16.51;84.72;97690.38;4976570;28;8816;-60
2023/08/03 04:05:00;;;;;;;;;0.00;0.00;;;;;16.54;84.57;97698.81;4976716;28;8980;-59
2023/08/03 04:07:28;;;;;;;;;1.00;1.00;;;;;16.55;84.84;97699.66;4976793;28;8812;-59
2023/08/03 04:09:55;;;;;;;;;1.00;1.00;;;;;16.55;84.86;97705.03;4976827;28;8844;-59
2023/08/03 04:12:23;;;;;;;;;1.00;1.00;;;;;16.57;84.73;97706.44;4976556;28;8857;-59
2023/08/03 04:14:50;;;;;;;;;2.20;1.40;;;;;16.59;84.49;97706.25;4976496;28;8859;-60
2023/08/03 04:17:18;;;;;;;;;1.00;1.00;;;;;16.61;84.37;97710.38;4976707;28;8840;-59
2023/08/03 04:19:46;;;;;;;;;1.00;1.00;;;;;16.64;83.91;97719.88;4976734;28;8848;-60
2023/08/03 04:22:14;;;;;;;;;0.00;0.00;;;;;16.66;83.93;97712.41;4976509;28;8879;-60
2023/08/03 04:24:42;;;;;;;;;1.00;1.00;;;;;16.64;83.97;97709.91;4976073;28;8974;-60
2023/08/03 04:27:09;;;;;;;;;1.00;1.00;;;;;16.64;84.05;97709.13;4976403;28;8824;-58
2023/08/03 04:29:37;;;;;;;;;0.60;0.60;;;;;16.60;84.02;97711.41;4976822;28;8871;-60
2023/08/03 04:32:04;;;;;;;;;1.00;1.00;;;;;16.61;84.10;97717.59;4976647;28;8833;-58
2023/08/03 04:34:32;;;;;;;;;0.00;0.00;;;;;16.61;84.14;97725.66;4976414;28;8944;-58
2023/08/03 04:37:00;;;;;;;;;0.00;0.00;;;;;16.63;84.11;97727.09;4976482;28;8841;-60
2023/08/03 04:39:28;;;;;;;;;0.00;0.00;;;;;16.68;83.76;97731.81;4975692;28;8821;-60
2023/08/03 04:41:55;;;;;;;;;0.00;0.00;;;;;16.74;83.70;97726.44;4975444;28;8875;-59
2023/08/03 04:44:23;;;;;;;;;1.00;1.00;;;;;16.78;83.57;97716.88;4974306;28;8852;-60
2023/08/03 04:46:51;;;;;;;;;0.00;0.00;;;;;16.83;83.60;97714.38;4975526;28;8845;-59
2023/08/03 04:49:19;;;;;;;;;1.00;0.00;;;;;16.87;83.51;97723.66;4974605;28;8832;-60
2023/08/03 04:51:46;;;;;;;;;0.80;0.80;;;;;16.89;82.96;97729.66;4974703;28;8855;-59
2023/08/03 04:54:14;;;;;;;;;0.60;0.60;;;;;16.91;82.88;97724.03;4975262;28;8848;-60
2023/08/03 04:56:42;;;;;;;;;1.00;1.00;;;;;16.92;82.95;97739.97;4975708;28;8852;-60
2023/08/03 04:59:09;;;;;;;;;0.00;0.00;;;;;16.93;83.47;97720.09;4975636;28;8834;-60
2023/08/03 05:01:37;;;;;;;;;0.00;0.00;;;;;16.97;83.30;97726.72;4975726;28;8840;-60
2023/08/03 05:04:05;;;;;;;;;0.00;0.00;;;;;17.00;82.85;97739.72;4975288;28;8902;-60
2023/08/03 05:06:32;;;;;;;;;0.00;0.00;;;;;17.01;82.97;97733.28;4977186;28;8863;-60
2023/08/03 05:09:00;;;;;;;;;1.00;1.00;;;;;17.03;82.53;97730.41;4978847;28;8845;-60
2023/08/03 05:11:28;;;;;;;;;0.60;0.60;;;;;17.04;82.99;97746.31;4978525;28;8821;-59
2023/08/03 05:13:55;;;;;;;;;0.40;0.40;;;;;17.06;82.74;97736.16;4978586;28;8825;-58
2023/08/03 05:16:24;;;;;;;;;1.00;1.00;;;;;17.04;82.69;97732.88;4978487;28;8848;-60
2023/08/03 05:18:52;;;;;;;;;1.00;1.00;;;;;17.05;82.38;97734.53;4978058;28;8852;-59
2023/08/03 05:21:20;;;;;;;;;1.00;1.00;;;;;17.07;82.34;97740.50;4978420;28;8851;-60
2023/08/03 05:23:48;;;;;;;;;0.40;0.40;;;;;17.12;82.08;97735.31;4978333;28;8832;-59
2023/08/03 05:26:16;;;;;;;;;1.00;1.00;;;;;17.14;82.38;97727.00;4978324;28;8974;-59
2023/08/03 05:28:44;;;;;;;;;1.00;1.00;;;;;17.18;82.25;97734.44;4977905;28;9530;-60
2023/08/03 05:31:11;;;;;;;;;0.20;0.00;;;;;17.25;82.31;97734.38;4978670;28;8849;-59
2023/08/03 05:33:39;;;;;;;;;1.00;1.00;;;;;17.28;81.77;97733.94;4978326;28;8825;-61
2023/08/03 05:36:06;;;;;;;;;0.80;0.80;;;;;17.29;81.90;97747.19;4978113;28;8836;-60
2023/08/03 05:38:34;;;;;;;;;0.00;0.00;;;;;17.30;82.19;97748.81;4978420;28;8860;-59
2023/08/03 05:41:02;;;;;;;;;1.00;1.00;;;;;17.33;81.75;97747.56;4978817;28;8847;-60
2023/08/03 05:43:29;;;;;;;;;0.40;0.40;;;;;17.35;81.75;97746.31;4978386;28;8855;-60
2023/08/03 05:45:57;;;;;;;;;0.60;0.60;;;;;17.38;81.41;97764.72;4978029;28;8832;-58
2023/08/03 05:48:25;;;;;;;;;0.00;0.00;;;;;17.38;81.10;97758.56;4978437;28;8824;-60
2023/08/03 05:50:52;;;;;;;;;1.00;0.00;;;;;17.38;81.71;97759.34;4977538;28;8844;-58
2023/08/03 05:53:20;;;;;;;;;0.00;0.00;;;;;17.40;81.16;97759.94;4976838;28;8923;-60
2023/08/03 05:55:47;;;;;;;;;0.00;0.00;;;;;17.43;80.75;97753.31;4976629;28;8841;-60
2023/08/03 05:58:35;;;;;;;;;0.00;0.00;;;;;17.45;81.15;97762.00;4975811;28;9066;-60
2023/08/03 06:01:03;;;;;;;;;0.00;0.00;;;;;17.48;81.30;97773.13;4975811;28;8844;-59
2023/08/03 06:03:30;;;;;;;;;0.60;0.60;;;;;17.43;80.91;97764.91;4976356;28;8836;-60
2023/08/03 06:05:58;;;;;;;;;1.00;1.00;;;;;17.25;81.65;97772.84;4976827;28;8833;-60
2023/08/03 06:08:26;;;;;;;;;0.00;0.00;;;;;17.08;81.67;97776.31;4977046;28;8820;-61
2023/08/03 06:10:54;;;;;;;;;1.00;0.00;;;;;16.99;82.00;97786.47;4976981;28;8836;-61
2023/08/03 06:13:21;;;;;;;;;0.80;0.60;;;;;16.98;81.78;97784.84;4977366;28;8855;-61
2023/08/03 06:15:49;;;;;;;;;0.00;0.00;;;;;17.02;82.27;97788.72;4976581;28;8849;-60
2023/08/03 06:18:16;;;;;;;;;0.60;0.60;;;;;17.09;82.20;97789.50;4975693;28;8845;-60
2023/08/03 06:20:44;;;;;;;;;1.00;1.00;;;;;17.14;81.93;97797.78;4977269;28;8923;-60
2023/08/03 06:23:12;;;;;;;;;0.00;0.00;;;;;17.20;81.78;97799.59;4976067;28;8817;-58
2023/08/03 06:25:39;;;;;;;;;1.00;1.00;;;;;17.25;81.62;97799.75;4976331;28;8983;-59
2023/08/03 06:28:07;;;;;;;;;0.80;0.80;;;;;17.31;81.47;97798.91;4977372;28;8828;-60
2023/08/03 06:30:35;;;;;;;;;0.00;0.00;;;;;17.41;80.70;97780.47;4973885;28;8868;-60
2023/08/03 06:33:03;;;;;;;;;0.20;0.20;;;;;17.57;80.33;97792.53;4974318;28;8836;-60
2023/08/03 06:35:31;;;;;;;;;1.00;1.00;;;;;17.73;80.06;97779.38;4973933;28;8983;-60
2023/08/03 06:37:58;;;;;;;;;0.80;0.80;;;;;17.90;79.65;97775.06;4974601;28;8836;-60
2023/08/03 06:40:26;;;;;;;;;0.00;0.00;;;;;18.04;79.44;97787.38;4975296;28;8855;-59
2023/08/03 06:42:54;;;;;;;;;1.00;1.00;;;;;18.06;79.43;97789.88;4975719;28;8828;-58
2023/08/03 06:45:21;;;;;;;;;1.60;1.40;;;;;18.05;79.11;97797.13;4976517;28;8836;-60
2023/08/03 06:47:49;;;;;;;;;0.00;0.00;;;;;17.99;79.53;97813.34;4977000;28;8847;-61
2023/08/03 06:50:17;;;;;;;;;2.60;1.00;;;;;17.91;79.31;97805.53;4976034;28;8855;-61
2023/08/03 06:52:44;;;;;;;;;0.00;0.00;;;;;17.79;79.75;97802.75;4976836;28;8970;-60
2023/08/03 06:55:12;;;;;;;;;0.00;0.00;;;;;17.67;79.93;97811.72;4976827;28;8816;-60
2023/08/03 06:57:39;;;;;;;;;0.00;0.00;;;;;17.38;80.86;97825.81;4976687;28;8840;-61
2023/08/03 07:00:07;;;;;;;;;0.00;0.00;;;;;17.06;81.89;97837.53;4975896;28;8857;-60
2023/08/03 07:02:35;;;;;;;;;0.00;0.00;;;;;16.82;82.12;97868.66;4976228;28;8871;-60
2023/08/03 07:05:02;;;;;;;;;1.00;0.00;;;;;16.63;83.38;97864.16;4975543;28;8859;-59
2023/08/03 07:07:30;;;;;;;;;1.00;1.00;;;;;16.49;83.11;97870.59;4976734;28;8891;-59
2023/08/03 07:09:59;;;;;;;;;1.00;0.00;;;;;16.39;83.20;97854.09;4975508;28;8875;-59
2023/08/03 07:12:28;;;;;;;;;0.00;0.00;;;;;16.31;83.78;97848.91;4975040;28;8856;-60
2023/08/03 07:14:57;;;;;;;;;0.00;0.00;;;;;16.26;84.07;97861.31;4975249;28;8836;-59
2023/08/03 07:17:24;;;;;;;;;0.00;0.00;;;;;16.22;84.46;97861.94;4973368;28;8878;-58
2023/08/03 07:19:53;;;;;;;;;0.00;0.00;;;;;16.19;84.54;97880.13;4974449;28;8840;-59
2023/08/03 07:22:20;;;;;;;;;1.00;1.00;;;;;16.19;84.23;97877.44;4974426;28;8867;-59
2023/08/03 07:24:48;;;;;;;;;0.00;0.00;;;;;16.18;84.67;97883.03;4974467;28;8871;-58
2023/08/03 07:27:16;;;;;;;;;0.20;0.20;;;;;16.20;84.51;97905.13;4974975;28;8856;-58
2023/08/03 07:29:43;;;;;;;;;0.80;0.80;;;;;16.19;84.79;97893.53;4974834;28;8911;-58
2023/08/03 07:32:12;;;;;;;;;0.00;0.00;;;;;16.19;85.20;97896.22;4976140;28;8836;-59
2023/08/03 07:34:40;;;;;;;;;0.80;0.80;;;;;16.18;84.72;97897.25;4976643;28;8864;-59
2023/08/03 07:37:09;;;;;;;;;0.00;0.00;;;;;16.22;85.09;97908.41;4976413;28;9511;-59
2023/08/03 07:39:36;;;;;;;;;1.00;0.00;;;;;16.23;84.71;97910.06;4975807;28;8836;-57
2023/08/03 07:42:04;;;;;;;;;0.00;0.00;;;;;16.23;84.78;97911.94;4976251;28;8832;-59
2023/08/03 07:44:34;;;;;;;;;0.00;0.00;;;;;16.23;85.36;97910.06;4975473;28;8833;-58
2023/08/03 07:47:05;;;;;;;;;0.00;0.00;;;;;16.23;85.30;97914.63;4976058;28;8791;-59
2023/08/03 07:49:33;;;;;;;;;0.00;0.00;;;;;16.22;85.67;97929.09;4976146;28;8832;-59
2023/08/03 07:52:01;;;;;;;;;0.00;0.00;;;;;16.20;85.28;97926.59;4974320;28;8853;-59
2023/08/03 07:54:28;;;;;;;;;0.00;0.00;;;;;16.22;85.62;97923.72;4974419;28;8851;-59
2023/08/03 07:56:56;;;;;;;;;0.00;0.00;;;;;16.24;85.44;97936.72;4974152;28;8831;-59
2023/08/03 07:59:24;;;;;;;;;0.00;0.00;;;;;16.27;85.66;97936.31;4974833;28;8836;-59
2023/08/03 08:01:51;;;;;;;;;0.60;0.60;;;;;16.29;85.50;97936.94;4974559;28;8843;-59
2023/08/03 08:04:19;;;;;;;;;0.00;0.00;;;;;16.32;85.34;97939.22;4975164;28;8847;-59
2023/08/03 08:06:47;;;;;;;;;0.00;0.00;;;;;16.35;85.19;97951.41;4974996;28;8828;-60
2023/08/03 08:09:14;;;;;;;;;0.80;0.80;;;;;16.37;85.44;97954.72;4974202;28;8863;-59
2023/08/03 08:11:42;;;;;;;;;0.00;0.00;;;;;16.37;85.65;97960.09;4974564;28;8833;-59
2023/08/03 08:14:10;;;;;;;;;0.00;0.00;;;;;16.36;85.55;97963.81;4974990;28;8843;-59
2023/08/03 08:16:38;;;;;;;;;0.00;0.00;;;;;16.36;85.49;97975.38;4973493;28;8856;-59
2023/08/03 08:19:06;;;;;;;;;0.00;0.00;;;;;16.39;85.43;97969.63;4974211;28;9568;-59
2023/08/03 08:21:34;;;;;;;;;0.60;0.60;;;;;16.41;85.42;97975.59;4972703;28;8837;-58
2023/08/03 08:24:01;;;;;;;;;0.00;0.00;;;;;16.44;85.59;97994.03;4974905;28;8860;-59
2023/08/03 08:26:31;;;;;;;;;0.00;0.00;;;;;16.47;85.26;97984.72;4974221;28;8829;-59
2023/08/03 08:28:59;;;;;;;;;0.60;0.00;;;;;16.51;85.14;97985.94;4973894;28;8891;-59
2023/08/03 08:31:32;;;;;;;;;0.00;0.00;;;;;16.55;85.08;98003.31;4974065;28;9000;-58
2023/08/03 08:34:19;;;;;;;;;0.00;0.00;;;;;16.59;85.03;98002.69;4974553;28;8953;-59
2023/08/03 08:36:51;;;;;;;;;0.00;0.00;;;;;16.65;84.69;97991.09;4974019;28;8857;-59
2023/08/03 08:39:19;;;;;;;;;0.60;0.60;;;;;16.75;85.03;98001.44;4972698;28;8828;-59
2023/08/03 08:41:47;;;;;;;;;0.00;0.00;;;;;16.93;84.32;98007.03;4975246;28;8848;-59
2023/08/03 08:44:14;;;;;;;;;0.00;0.00;;;;;17.13;83.82;98005.94;4976842;28;8837;-59
2023/08/03 08:46:42;;;;;;;;;0.40;0.20;;;;;17.37;83.09;98004.44;4977642;28;8944;-59
2023/08/03 08:49:10;;;;;;;;;1.00;1.00;;;;;17.68;82.39;98002.66;4977697;28;8848;-59
2023/08/03 08:51:59;;;;;;;;;0.20;0.20;;;;;18.00;81.83;97996.28;4977888;28;8944;-59
2023/08/03 08:54:27;;;;;;;;;0.60;0.60;;;;;18.28;81.17;98017.47;4978166;28;8837;-59
2023/08/03 08:57:15;;;;;;;;;1.80;1.80;;;;;18.55;80.73;98013.56;4978243;28;8825;-59
2023/08/03 08:59:44;;;;;;;;;0.80;0.80;;;;;18.81;79.79;98002.56;4979015;28;8902;-59
2023/08/03 09:02:11;;;;;;;;;0.80;0.80;;;;;19.05;79.40;98005.22;4979174;28;8835;-60
2023/08/03 09:04:39;;;;;;;;;1.00;1.00;;;;;19.21;79.04;98009.25;4979426;28;8973;-59
2023/08/03 09:07:07;;;;;;;;;0.20;0.20;;;;;19.38;78.97;98002.19;4978618;28;8860;-59
2023/08/03 09:09:35;;;;;;;;;1.00;1.00;;;;;19.55;78.27;98017.59;4978674;28;8911;-59
2023/08/03 09:12:03;;;;;;;;;0.60;0.60;;;;;19.61;78.11;98019.38;4977939;28;8837;-59
2023/08/03 09:14:33;;;;;;;;;0.20;0.20;;;;;19.67;78.28;98026.59;4977850;28;8858;-60
2023/08/03 09:17:01;;;;;;;;;1.00;1.00;;;;;19.73;78.00;98031.06;4978459;28;8848;-59
2023/08/03 09:19:28;;;;;;;;;0.80;0.80;;;;;19.81;77.82;98021.84;4978414;28;8860;-58
2023/08/03 09:21:58;;;;;;;;;0.20;0.20;;;;;19.83;77.78;98025.13;4978286;28;8841;-59
2023/08/03 09:24:29;;;;;;;;;0.40;0.40;;;;;19.79;78.22;98027.47;4978368;28;8780;-60
2023/08/03 09:27:00;;;;;;;;;0.60;0.60;;;;;19.75;78.34;98042.50;4977974;28;8784;-60
2023/08/03 09:29:27;;;;;;;;;0.20;0.00;;;;;19.60;78.40;98042.06;4977591;28;8842;-60
2023/08/03 09:31:55;;;;;;;;;0.40;0.40;;;;;19.48;78.43;98041.13;4977147;28;8829;-60
2023/08/03 09:34:22;;;;;;;;;0.00;0.00;;;;;19.36;78.96;98050.22;4978149;28;8844;-59
2023/08/03 09:36:53;;;;;;;;;0.40;0.00;;;;;19.24;79.17;98042.03;4977158;28;8795;-60
2023/08/03 09:39:24;;;;;;;;;1.00;1.00;;;;;19.13;79.43;98047.28;4977728;28;8827;-59
2023/08/03 09:41:55;;;;;;;;;0.40;0.40;;;;;19.07;79.52;98048.19;4975926;28;8866;-60
2023/08/03 09:44:25;;;;;;;;;1.00;1.00;;;;;19.09;79.89;98057.72;4976868;28;8840;-58
2023/08/03 09:46:56;;;;;;;;;0.00;0.00;;;;;19.17;79.33;98062.81;4977340;28;8840;-60
2023/08/03 09:49:23;;;;;;;;;0.00;0.00;;;;;19.16;79.80;98071.13;4977454;28;8934;-60
2023/08/03 09:51:51;;;;;;;;;3.80;2.60;;;;;19.23;79.48;98078.16;4976456;28;8848;-60
2023/08/03 09:54:21;;;;;;;;;1.00;1.00;;;;;19.43;79.04;98067.97;4975955;28;8792;-60
2023/08/03 09:56:52;;;;;;;;;0.80;0.20;;;;;19.50;78.43;98074.13;4976991;28;8828;-59
2023/08/03 09:59:40;;;;;;;;;0.20;0.00;;;;;19.54;78.36;98080.75;4976332;28;8880;-60
2023/08/03 10:02:09;;;;;;;;;0.20;0.20;;;;;19.50;78.41;98093.03;4976841;28;8855;-60
2023/08/03 10:04:36;;;;;;;;;0.80;0.80;;;;;19.45;78.50;98092.06;4975408;28;8829;-60
2023/08/03 10:07:04;;;;;;;;;1.00;1.00;;;;;19.36;79.08;98094.22;4977330;28;8820;-61
2023/08/03 10:09:32;;;;;;;;;1.00;0.60;;;;;19.27;78.83;98095.56;4977019;28;8844;-60
2023/08/03 10:11:59;;;;;;;;;1.20;1.20;;;;;19.25;78.97;98088.72;4975794;28;8923;-60
2023/08/03 10:14:27;;;;;;;;;0.00;0.00;;;;;19.30;79.02;98094.28;4976104;28;8928;-59
2023/08/03 10:16:55;;;;;;;;;1.00;1.00;;;;;19.38;78.77;98096.69;4976503;28;8920;-59
2023/08/03 10:19:22;;;;;;;;;1.00;1.00;;;;;19.39;78.13;98106.44;4976149;28;8852;-60
2023/08/03 10:21:50;;;;;;;;;1.00;1.00;;;;;19.40;78.43;98103.53;4976094;28;8939;-60
2023/08/03 10:24:21;;;;;;;;;1.00;1.00;;;;;19.41;78.08;98102.47;4976924;28;8841;-60
2023/08/03 10:26:48;;;;;;;;;1.00;1.00;;;;;19.40;78.18;98119.72;4976594;28;8840;-60
2023/08/03 10:29:16;;;;;;;;;0.60;0.60;;;;;19.35;78.19;98124.97;4976527;28;8840;-60
2023/08/03 10:31:46;;;;;;;;;1.40;1.00;;;;;19.31;78.33;98123.78;4976122;28;8825;-60
2023/08/03 10:34:14;;;;;;;;;1.00;1.00;;;;;19.35;78.48;98124.16;4976342;28;8959;-60
2023/08/03 10:36:41;;;;;;;;;1.00;1.00;;;;;19.34;78.42;98117.91;4976154;28;8825;-59
2023/08/03 10:39:11;;;;;;;;;3.00;1.00;;;;;19.37;77.98;98130.16;4976089;28;8892;-60
2023/08/03 10:41:40;;;;;;;;;0.40;0.40;;;;;19.38;78.19;98119.13;4975736;28;8975;-59
2023/08/03 10:44:09;;;;;;;;;1.00;1.00;;;;;19.40;77.81;98127.84;4976161;28;8836;-60
2023/08/03 10:46:37;;;;;;;;;1.00;1.00;;;;;19.41;78.14;98134.88;4975308;28;8820;-60
2023/08/03 10:49:05;;;;;;;;;1.80;1.80;;;;;19.38;77.75;98140.72;4974525;28;8852;-60
2023/08/03 10:51:33;;;;;;;;;1.00;1.00;;;;;19.33;78.15;98151.38;4974681;28;8935;-60
2023/08/03 10:54:01;;;;;;;;;1.00;1.00;;;;;19.29;77.92;98141.22;4974945;28;8840;-59
2023/08/03 10:56:28;;;;;;;;;1.00;1.00;;;;;19.24;78.59;98150.00;4975834;28;8851;-60
2023/08/03 10:58:56;;;;;;;;;2.00;1.00;;;;;19.29;78.12;98142.06;4975327;28;8852;-59
2023/08/03 11:01:23;;;;;;;;;1.00;1.00;;;;;19.41;77.66;98161.88;4975082;28;8954;-60
2023/08/03 11:03:51;;;;;;;;;1.00;1.00;;;;;19.46;77.46;98163.91;4974757;28;8840;-59
2023/08/03 11:06:19;;;;;;;;;3.00;2.60;;;;;19.42;78.04;98168.13;4975065;28;8975;-60
2023/08/03 11:08:47;;;;;;;;;1.00;1.00;;;;;19.42;77.55;98163.53;4974826;28;8851;-60
2023/08/03 11:11:21;;;;;;;;;1.00;1.00;;;;;19.52;77.23;98174.69;4975507;28;8846;-60
2023/08/03 11:13:49;;;;;;;;;0.60;0.60;;;;;19.65;77.02;98193.44;4975423;28;8967;-60
2023/08/03 11:16:18;;;;;;;;;0.00;0.00;;;;;19.69;77.40;98181.16;4976293;28;9471;-60
2023/08/03 11:18:46;;;;;;;;;2.40;1.00;;;;;19.76;76.58;98181.91;4975064;28;8845;-59
2023/08/03 11:21:14;;;;;;;;;1.00;1.00;;;;;19.91;76.28;98178.84;4974477;28;8895;-60
2023/08/03 11:23:42;;;;;;;;;1.00;1.00;;;;;20.06;76.09;98196.41;4975086;28;8833;-60
2023/08/03 11:26:09;;;;;;;;;1.00;1.00;;;;;20.02;76.32;98181.63;4975650;28;8824;-60
2023/08/03 11:28:37;;;;;;;;;3.00;2.80;;;;;19.94;76.36;98189.22;4975694;28;8828;-61
2023/08/03 11:31:05;;;;;;;;;2.60;2.60;;;;;19.87;77.06;98186.56;4975196;28;8860;-60
2023/08/03 11:33:35;;;;;;;;;1.00;1.00;;;;;19.83;76.59;98215.09;4974099;28;8836;-60
2023/08/03 11:36:03;;;;;;;;;1.80;1.80;;;;;19.79;76.76;98202.25;4975071;28;8836;-58
2023/08/03 11:38:31;;;;;;;;;0.60;0.60;;;;;19.72;77.12;98223.13;4974480;28;8840;-61
2023/08/03 11:40:58;;;;;;;;;0.00;0.00;;;;;19.61;77.09;98207.59;4974363;28;8837;-60
2023/08/03 11:43:26;;;;;;;;;0.00;0.00;;;;;19.49;77.11;98212.91;4974668;28;8856;-60
2023/08/03 11:45:54;;;;;;;;;0.00;0.00;;;;;19.31;77.81;98223.66;4974894;28;8844;-60